createdAt,value
2023-01-04T00:00:49.411Z,101733.69
2023-01-04T00:05:50.906Z,101721.59
2023-01-04T00:10:52.425Z,101698.28
2023-01-04T00:15:53.977Z,101691.34
2023-01-04T00:20:55.513Z,101680.06
2023-01-04T00:25:56.953Z,101661.94
2023-01-04T00:31:02.689Z,101648.06
2023-01-04T00:36:13.829Z,101644.59
2023-01-04T00:41:34.741Z,101623.84
2023-01-04T00:46:37.699Z,101600.47
2023-01-04T00:51:41.210Z,101586.63
2023-01-04T00:56:43.568Z,101568.47
2023-01-04T01:01:45.447Z,101548.56
2023-01-04T01:06:47.841Z,101543.38
2023-01-04T01:11:50.020Z,101534.75
2023-01-04T01:16:57.703Z,101524.34
2023-01-04T01:22:00.136Z,101507.94
2023-01-04T01:27:01.600Z,101489.78
2023-01-04T01:32:03.361Z,101469.88
2023-01-04T01:37:04.988Z,101466.41
2023-01-04T01:42:06.504Z,101453.44
2023-01-04T01:47:22.135Z,101437.00
2023-01-04T01:52:31.594Z,101429.19
2023-01-04T01:57:37.851Z,101440.44
2023-01-04T02:02:47.393Z,101419.69
2023-01-04T02:07:50.596Z,101407.53
2023-01-04T02:12:52.857Z,101385.88
2023-01-04T02:18:10.114Z,101381.59
2023-01-04T02:23:34.374Z,101347.81
2023-01-04T02:28:55.320Z,101340.03
2023-01-04T02:34:08.528Z,101319.31
2023-01-04T02:39:22.080Z,101282.94
2023-01-04T02:44:55.872Z,101288.16
2023-01-04T02:50:15.963Z,101263.94
2023-01-04T02:55:17.539Z,101257.94
2023-01-04T03:00:26.787Z,101233.72
2023-01-04T03:06:14.763Z,101222.47
2023-01-04T03:11:36.711Z,101207.78
2023-01-04T03:16:40.775Z,101193.16
2023-01-04T03:21:45.109Z,101187.97
2023-01-04T03:27:08.296Z,101150.75
2023-01-04T03:32:37.049Z,101144.75
2023-01-04T03:37:47.716Z,101123.97
2023-01-04T03:43:19.520Z,101108.47
2023-01-04T03:48:34.482Z,101100.66
2023-01-04T03:53:44.184Z,101073.94
2023-01-04T03:58:46.406Z,101067.88
2023-01-04T04:04:06.392Z,101041.09
2023-01-04T04:09:07.988Z,101040.19
2023-01-04T04:14:09.452Z,101034.97
2023-01-04T04:19:11.020Z,101001.28
2023-01-04T04:24:22.149Z,100987.44
2023-01-04T04:29:24.584Z,100967.56
2023-01-04T04:34:26.111Z,100958.03
2023-01-04T04:39:27.634Z,100944.22
2023-01-04T04:44:29.109Z,100930.34
2023-01-04T04:49:30.579Z,100908.72
2023-01-04T04:54:32.017Z,100893.16
2023-01-04T04:59:33.665Z,100882.81
2023-01-04T05:04:35.077Z,100874.94
2023-01-04T05:09:36.561Z,100852.44
2023-01-04T05:14:38.114Z,100850.66
2023-01-04T05:19:39.614Z,100822.91
2023-01-04T05:24:41.121Z,100810.75
2023-01-04T05:30:01.022Z,100789.19
2023-01-04T05:35:02.620Z,100781.38
2023-01-04T05:40:04.459Z,100764.81
2023-01-04T05:45:06.883Z,100752.59
2023-01-04T05:50:10.047Z,100739.59
2023-01-04T05:55:11.910Z,100723.09
2023-01-04T06:00:14.636Z,100708.34
2023-01-04T06:05:16.471Z,100712.63
2023-01-04T06:10:18.783Z,100683.06
2023-01-04T06:15:20.263Z,100695.94
2023-01-04T06:20:21.839Z,100692.34
2023-01-04T06:25:23.314Z,100658.66
2023-01-04T06:30:24.833Z,100668.97
2023-01-04T06:35:26.410Z,100635.97
2023-01-04T06:40:28.630Z,100652.91
2023-01-04T06:45:30.079Z,100614.91
2023-01-04T06:50:31.590Z,100623.75
2023-01-04T06:55:33.107Z,100608.03
2023-01-04T07:00:34.580Z,100602.69
2023-01-04T07:05:36.129Z,100587.94
2023-01-04T07:10:37.695Z,100578.38
2023-01-04T07:15:40.841Z,100583.44
2023-01-04T07:20:43.616Z,100560.03
2023-01-04T07:25:45.111Z,100557.25
2023-01-04T07:30:46.652Z,100535.41
2023-01-04T07:35:48.130Z,100532.50
2023-01-04T07:40:55.918Z,100525.34
2023-01-04T07:45:58.252Z,100520.06
2023-01-04T07:50:59.737Z,100517.09
2023-01-04T07:56:01.352Z,100511.59
2023-01-04T08:01:08.115Z,100502.66
2023-01-04T08:06:11.994Z,100502.34
2023-01-04T08:11:17.118Z,100521.03
2023-01-04T08:16:40.565Z,100517.34
2023-01-04T08:21:43.040Z,100513.56
2023-01-04T08:26:45.750Z,100510.53
2023-01-04T08:31:47.287Z,100491.09
2023-01-04T08:36:50.735Z,100486.34
2023-01-04T08:41:59.335Z,100494.03
2023-01-04T08:47:04.460Z,100489.31
2023-01-04T08:52:06.120Z,100480.41
2023-01-04T08:57:07.602Z,100480.19
2023-01-04T09:02:22.443Z,100473.09
2023-01-04T09:07:24.013Z,100473.81
2023-01-04T09:12:25.515Z,100468.38
2023-01-04T09:17:27.049Z,100472.59
2023-01-04T09:22:30.799Z,100474.31
2023-01-04T09:27:32.785Z,100465.38
2023-01-04T09:32:34.276Z,100489.72
2023-01-04T09:37:35.719Z,100469.69
2023-01-04T09:42:44.057Z,100475.69
2023-01-04T09:47:55.787Z,100459.28
2023-01-04T09:53:12.434Z,100471.22
2023-01-04T09:58:35.513Z,100457.09
2023-01-04T10:03:39.495Z,100463.09
2023-01-04T10:08:44.337Z,100466.53
2023-01-04T10:14:01.357Z,100458.81
2023-01-04T10:21:08.541Z,100453.25
2023-01-04T10:24:58.309Z,100459.25
2023-01-04T10:30:16.453Z,100449.72
2023-01-04T10:35:24.112Z,100430.41
2023-01-04T10:40:27.967Z,100406.81
2023-01-04T10:45:43.789Z,100422.53
2023-01-04T10:50:56.440Z,100427.75
2023-01-04T10:56:26.245Z,100419.06
2023-01-04T11:01:36.116Z,100412.84
2023-01-04T11:06:48.429Z,100395.75
2023-01-04T11:11:51.231Z,100375.41
2023-01-04T11:16:59.612Z,100374.56
2023-01-04T11:22:28.042Z,100374.31
2023-01-04T11:27:35.888Z,100379.88
2023-01-04T11:33:03.081Z,100383.34
2023-01-04T11:38:27.862Z,100376.41
2023-01-04T11:43:39.029Z,100368.41
2023-01-04T11:48:46.171Z,100359.63
2023-01-04T11:53:57.437Z,100354.41
2023-01-04T11:59:04.127Z,100332.88
2023-01-04T12:04:23.235Z,100336.97
2023-01-04T12:09:24.893Z,100347.31
2023-01-04T12:14:29.270Z,100344.75
2023-01-04T12:19:31.382Z,100351.09
2023-01-04T12:24:34.479Z,100353.00
2023-01-04T12:29:44.631Z,100335.56
2023-01-04T12:34:49.010Z,100344.41
2023-01-04T12:39:50.541Z,100337.75
2023-01-04T12:44:52.262Z,100341.81
2023-01-04T12:49:56.670Z,100338.38
2023-01-04T12:55:00.629Z,100352.34
2023-01-04T13:00:07.065Z,100332.09
2023-01-04T13:10:43.623Z,100321.22
2023-01-04T13:16:16.666Z,100326.19
2023-01-04T13:21:27.804Z,100322.81
2023-01-04T13:26:48.795Z,100323.66
2023-01-04T13:31:59.725Z,100295.66
2023-01-04T13:37:17.211Z,100256.66
2023-01-04T13:42:26.824Z,100237.38
2023-01-04T13:47:33.670Z,100242.75
2023-01-04T13:52:50.900Z,100242.75
2023-01-04T13:58:01.865Z,100230.47
2023-01-04T14:03:21.477Z,100235.03
2023-01-04T14:09:01.722Z,100227.94
2023-01-04T14:14:05.070Z,100229.13
2023-01-04T14:19:27.692Z,100221.13
2023-01-04T14:29:54.315Z,100205.66
2023-01-04T14:34:55.882Z,100194.56
2023-01-04T14:39:58.138Z,100191.09
2023-01-04T14:44:59.778Z,100193.81
2023-01-04T14:50:01.283Z,100192.47
2023-01-04T14:55:04.894Z,100195.34
2023-01-04T15:00:07.048Z,100187.28
2023-01-04T15:05:09.032Z,100183.09
2023-01-04T15:10:28.008Z,100174.31
2023-01-04T15:15:30.202Z,100171.72
2023-01-04T15:20:31.870Z,100187.19
2023-01-04T15:25:33.419Z,100175.81
2023-01-04T15:30:35.300Z,100186.47
2023-01-04T15:35:36.742Z,100185.78
2023-01-04T15:40:38.935Z,100177.78
2023-01-04T15:45:40.376Z,100168.38
2023-01-04T15:50:41.879Z,100183.25
2023-01-04T15:55:43.418Z,100164.94
2023-01-04T16:00:45.769Z,100179.75
2023-01-04T16:05:49.711Z,100170.47
2023-01-04T16:10:51.200Z,100170.63
2023-01-04T16:15:52.760Z,100162.81
2023-01-04T16:20:54.281Z,100163.78
2023-01-04T16:26:10.033Z,100167.50
2023-01-04T16:31:11.563Z,100179.41
2023-01-04T16:36:14.811Z,100180.69
2023-01-04T16:41:18.567Z,100161.53
2023-01-04T16:46:28.800Z,100179.19
2023-01-04T16:51:32.650Z,100190.78
2023-01-04T16:56:34.235Z,100190.09
2023-01-04T17:01:40.920Z,100172.72
2023-01-04T17:06:49.941Z,100171.69
2023-01-04T17:17:18.739Z,100174.97
2023-01-04T17:22:20.353Z,100179.28
2023-01-04T17:27:21.807Z,100179.97
2023-01-04T17:32:23.325Z,100189.34
2023-01-04T17:37:25.281Z,100198.22
2023-01-04T17:42:26.787Z,100188.16
2023-01-04T17:47:29.255Z,100185.03
2023-01-04T17:52:31.685Z,100173.97
2023-01-04T17:57:34.989Z,100184.19
2023-01-04T18:02:36.473Z,100185.81
2023-01-04T18:07:37.944Z,100185.13
2023-01-04T18:12:39.438Z,100184.19
2023-01-04T18:17:41.017Z,100173.88
2023-01-04T18:22:42.448Z,100171.34
2023-01-04T18:27:43.942Z,100156.78
2023-01-04T18:32:45.479Z,100156.69
2023-01-04T18:37:47.007Z,100159.22
2023-01-04T18:42:49.416Z,100160.81
2023-01-04T18:47:52.092Z,100145.97
2023-01-04T18:52:53.800Z,100150.09
2023-01-04T18:57:55.286Z,100138.16
2023-01-04T19:02:57.535Z,100137.63
2023-01-04T19:07:59.008Z,100128.13
2023-01-04T19:13:00.515Z,100134.00
2023-01-04T19:18:01.967Z,100128.72
2023-01-04T19:23:03.452Z,100143.50
2023-01-04T19:28:05.395Z,100138.16
2023-01-04T19:33:07.212Z,100137.25
2023-01-04T19:38:09.082Z,100132.16
2023-01-04T19:43:10.694Z,100137.41
2023-01-04T19:48:12.183Z,100131.44
2023-01-04T19:53:13.934Z,100126.94
2023-01-04T19:58:15.822Z,100119.22
2023-01-04T20:03:17.432Z,100126.38
2023-01-04T20:08:19.371Z,100118.63
2023-01-04T20:13:20.890Z,100119.31
2023-01-04T20:18:25.747Z,100110.81
2023-01-04T20:23:27.331Z,100112.41
2023-01-04T20:28:28.827Z,100114.16
2023-01-04T20:33:31.370Z,100117.41
2023-01-04T20:38:39.847Z,100118.25
2023-01-04T20:43:42.624Z,100119.16
2023-01-04T20:48:44.828Z,100117.53
2023-01-04T20:53:46.726Z,100108.72
2023-01-04T20:58:49.295Z,100118.38
2023-01-04T21:03:50.899Z,100116.53
2023-01-04T21:08:54.747Z,100124.47
2023-01-04T21:13:56.551Z,100108.88
2023-01-04T21:18:58.626Z,100122.00
2023-01-04T21:24:00.085Z,100111.44
2023-01-04T21:29:01.576Z,100124.38
2023-01-04T21:34:07.920Z,100124.44
2023-01-04T21:39:12.904Z,100128.47
2023-01-04T21:44:14.455Z,100130.56
2023-01-04T21:49:15.975Z,100128.63
2023-01-04T21:54:17.393Z,100129.56
2023-01-04T21:59:18.819Z,100120.16
2023-01-04T22:04:20.275Z,100124.53
2023-01-04T22:09:21.785Z,100132.59
2023-01-04T22:14:23.200Z,100146.47
2023-01-04T22:19:24.655Z,100136.94
2023-01-04T22:24:26.145Z,100146.63
2023-01-04T22:29:27.638Z,100144.97
2023-01-04T22:34:29.156Z,100160.59
2023-01-04T22:39:30.631Z,100158.88
2023-01-04T22:44:32.081Z,100159.00
2023-01-04T22:49:33.538Z,100163.44
2023-01-04T22:54:35.587Z,100163.44
2023-01-04T22:59:37.058Z,100167.06
2023-01-04T23:04:38.621Z,100185.03
2023-01-04T23:09:40.276Z,100191.63
2023-01-04T23:14:41.775Z,100208.03
2023-01-04T23:19:43.298Z,100218.00
2023-01-04T23:24:44.776Z,100227.06
2023-01-04T23:29:46.472Z,100256.16
2023-01-04T23:34:50.945Z,100257.31
2023-01-04T23:39:52.389Z,100260.13
2023-01-04T23:44:53.865Z,100278.25
2023-01-04T23:49:55.402Z,100278.69
2023-01-04T23:54:56.813Z,100287.22
2023-01-04T23:59:58.286Z,100296.88
